createdAt,value
2019-01-16T00:00:47.246Z,8.50
2019-01-16T00:03:34.314Z,8.66
2019-01-16T00:06:30.068Z,8.47
2019-01-16T00:09:15.641Z,8.51
2019-01-16T00:12:20.139Z,8.44
2019-01-16T00:15:07.467Z,8.34
2019-01-16T00:18:07.274Z,8.35
2019-01-16T00:20:49.481Z,8.55
2019-01-16T00:23:35.062Z,8.36
2019-01-16T00:26:21.009Z,8.30
2019-01-16T00:29:10.711Z,8.40
2019-01-16T00:32:00.497Z,8.38
2019-01-16T00:34:49.721Z,8.19
2019-01-16T00:37:36.394Z,8.22
2019-01-16T00:40:43.013Z,8.11
2019-01-16T00:43:21.124Z,8.42
2019-01-16T00:46:06.483Z,8.30
2019-01-16T00:48:53.192Z,8.37
2019-01-16T00:51:51.835Z,8.25
2019-01-16T00:54:42.148Z,8.25
2019-01-16T00:57:28.455Z,8.10
2019-01-16T01:00:14.333Z,8.22
2019-01-16T01:02:58.832Z,8.20
2019-01-16T01:05:51.417Z,8.22
2019-01-16T01:08:44.270Z,8.30
2019-01-16T01:11:29.679Z,8.24
2019-01-16T01:14:23.010Z,8.27
2019-01-16T01:17:24.938Z,8.08
2019-01-16T01:20:13.199Z,8.37
2019-01-16T01:23:05.800Z,8.38
2019-01-16T01:25:55.523Z,8.28
2019-01-16T01:28:41.439Z,8.30
2019-01-16T01:31:34.645Z,8.20
2019-01-16T01:34:18.922Z,8.25
2019-01-16T01:37:19.152Z,8.12
2019-01-16T01:40:03.709Z,8.29
2019-01-16T01:42:50.646Z,8.19
2019-01-16T01:45:40.121Z,8.34
2019-01-16T01:48:39.759Z,8.33
2019-01-16T01:51:13.596Z,8.30
2019-01-16T01:54:12.051Z,8.60
2019-01-16T01:56:51.768Z,8.39
2019-01-16T01:59:37.759Z,8.26
2019-01-16T02:02:14.223Z,8.44
2019-01-16T02:05:01.259Z,8.30
2019-01-16T02:07:48.763Z,8.25
2019-01-16T02:10:35.717Z,8.10
2019-01-16T02:13:16.346Z,8.20
2019-01-16T02:16:02.052Z,8.22
2019-01-16T02:19:09.201Z,8.10
2019-01-16T02:21:56.347Z,8.05
2019-01-16T02:24:41.286Z,8.06
2019-01-16T02:27:32.019Z,8.09
2019-01-16T02:30:10.191Z,8.02
2019-01-16T02:33:00.906Z,8.13
2019-01-16T02:35:54.567Z,8.03
2019-01-16T02:38:41.598Z,8.16
2019-01-16T02:41:44.794Z,8.02
2019-01-16T02:44:38.578Z,8.02
2019-01-16T02:47:37.350Z,8.21
2019-01-16T02:50:14.718Z,8.02
2019-01-16T02:53:20.705Z,8.11
2019-01-16T02:55:57.991Z,8.09
2019-01-16T02:58:45.619Z,8.07
2019-01-16T03:01:30.282Z,8.19
2019-01-16T03:04:15.882Z,8.33
2019-01-16T03:07:02.560Z,8.22
2019-01-16T03:09:36.589Z,8.38
2019-01-16T03:12:21.919Z,8.28
2019-01-16T03:15:07.266Z,8.35
2019-01-16T03:17:53.881Z,8.14
2019-01-16T03:20:33.789Z,8.17
2019-01-16T03:23:35.649Z,8.36
2019-01-16T03:26:35.550Z,8.08
2019-01-16T03:29:14.558Z,8.21
2019-01-16T03:32:13.566Z,8.37
2019-01-16T03:34:52.320Z,8.29
2019-01-16T03:37:30.929Z,8.31
2019-01-16T03:40:16.193Z,8.16
2019-01-16T03:42:57.380Z,8.22
2019-01-16T03:45:31.862Z,8.10
2019-01-16T03:48:19.322Z,8.22
2019-01-16T03:51:04.911Z,8.21
2019-01-16T03:53:53.203Z,8.23
2019-01-16T03:56:42.901Z,8.18
2019-01-16T03:59:27.985Z,8.01
2019-01-16T04:02:23.963Z,8.20
2019-01-16T04:05:16.811Z,8.24
2019-01-16T04:08:02.391Z,8.14
2019-01-16T04:10:58.156Z,8.17
2019-01-16T04:13:53.849Z,8.48
2019-01-16T04:16:34.372Z,8.24
2019-01-16T04:19:22.064Z,8.19
2019-01-16T04:22:03.443Z,8.25
2019-01-16T04:24:59.247Z,8.23
2019-01-16T04:27:45.922Z,8.27
2019-01-16T04:30:28.712Z,8.31
2019-01-16T04:33:13.953Z,8.49
2019-01-16T04:36:05.803Z,8.45
2019-01-16T04:38:52.496Z,8.18
2019-01-16T04:41:37.992Z,8.16
2019-01-16T04:44:14.890Z,8.05
2019-01-16T04:47:10.892Z,8.31
2019-01-16T04:50:12.673Z,8.30
2019-01-16T04:53:04.694Z,8.25
2019-01-16T04:56:06.710Z,8.06
2019-01-16T04:58:52.349Z,8.24
2019-01-16T05:01:44.968Z,8.28
2019-01-16T05:04:22.384Z,8.28
2019-01-16T05:06:58.731Z,8.42
2019-01-16T05:09:40.871Z,8.16
2019-01-16T05:12:31.570Z,8.44
2019-01-16T05:15:12.805Z,8.44
2019-01-16T05:17:50.203Z,8.29
2019-01-16T05:20:35.603Z,8.20
2019-01-16T05:23:27.198Z,8.28
2019-01-16T05:26:32.022Z,8.31
2019-01-16T05:29:17.887Z,8.12
2019-01-16T05:32:11.030Z,8.20
2019-01-16T05:35:07.669Z,8.07
2019-01-16T05:37:52.954Z,8.30
2019-01-16T05:40:40.159Z,8.13
2019-01-16T05:43:21.949Z,8.47
2019-01-16T05:46:19.468Z,8.19
2019-01-16T05:49:06.325Z,8.14
2019-01-16T05:51:53.347Z,8.32
2019-01-16T05:54:39.643Z,8.38
2019-01-16T05:57:28.043Z,8.36
2019-01-16T06:00:13.240Z,8.41
2019-01-16T06:02:57.997Z,8.51
2019-01-16T06:06:00.294Z,8.37
2019-01-16T06:08:46.984Z,8.42
2019-01-16T06:11:31.566Z,8.35
2019-01-16T06:14:10.031Z,8.20
2019-01-16T06:16:56.173Z,8.22
2019-01-16T06:19:37.915Z,8.33
2019-01-16T06:22:26.925Z,8.36
2019-01-16T06:25:13.076Z,8.30
2019-01-16T06:27:58.382Z,8.06
2019-01-16T06:30:54.620Z,8.25
2019-01-16T06:33:48.178Z,8.25
2019-01-16T06:36:34.847Z,8.38
2019-01-16T06:39:28.960Z,8.48
2019-01-16T06:42:18.216Z,8.38
2019-01-16T06:44:59.225Z,8.32
2019-01-16T06:47:50.022Z,8.42
2019-01-16T06:50:36.423Z,8.37
2019-01-16T06:53:21.959Z,8.47
2019-01-16T06:56:07.539Z,8.60
2019-01-16T06:58:52.459Z,8.52
2019-01-16T07:01:38.249Z,8.44
2019-01-16T07:04:34.418Z,8.37
2019-01-16T07:07:21.898Z,8.34
2019-01-16T07:10:02.183Z,8.58
2019-01-16T07:12:57.951Z,8.52
2019-01-16T07:15:51.340Z,8.39
2019-01-16T07:18:43.983Z,8.43
2019-01-16T07:21:33.565Z,8.47
2019-01-16T07:24:14.640Z,8.51
2019-01-16T07:27:02.469Z,8.55
2019-01-16T07:29:58.000Z,8.64
2019-01-16T07:32:54.159Z,8.57
2019-01-16T07:35:41.009Z,8.71
2019-01-16T07:38:44.413Z,8.74
2019-01-16T07:41:40.440Z,8.88
2019-01-16T07:44:26.650Z,8.65
2019-01-16T07:47:10.186Z,8.62
2019-01-16T07:50:17.181Z,8.45
2019-01-16T07:52:59.172Z,8.60
2019-01-16T07:55:45.055Z,8.64
2019-01-16T07:58:30.720Z,8.63
2019-01-16T08:01:16.501Z,8.63
2019-01-16T08:04:18.598Z,8.78
2019-01-16T08:07:02.640Z,8.91
2019-01-16T08:09:56.002Z,8.93
2019-01-16T08:12:41.912Z,8.83
2019-01-16T08:15:28.804Z,8.89
2019-01-16T08:18:19.718Z,8.89
2019-01-16T08:21:06.246Z,8.89
2019-01-16T08:24:02.414Z,9.01
2019-01-16T08:26:45.507Z,8.94
2019-01-16T08:29:37.602Z,9.05
2019-01-16T08:32:19.497Z,9.10
2019-01-16T08:34:58.627Z,8.85
2019-01-16T08:37:46.628Z,9.00
2019-01-16T08:40:32.729Z,8.93
2019-01-16T08:43:18.340Z,8.95
2019-01-16T08:46:05.547Z,9.00
2019-01-16T08:48:51.121Z,8.87
2019-01-16T08:51:30.061Z,9.00
2019-01-16T08:54:35.254Z,8.90
2019-01-16T08:57:20.802Z,8.89
2019-01-16T09:00:22.144Z,8.97
2019-01-16T09:03:00.143Z,8.87
2019-01-16T09:05:45.812Z,9.05
2019-01-16T09:08:35.762Z,8.95
2019-01-16T09:11:24.262Z,9.07
2019-01-16T09:14:23.069Z,8.95
2019-01-16T09:17:10.271Z,8.83
2019-01-16T09:20:03.370Z,8.98
2019-01-16T09:22:45.192Z,8.85
2019-01-16T09:25:34.919Z,9.01
2019-01-16T09:28:15.014Z,8.99
2019-01-16T09:31:04.680Z,8.84
2019-01-16T09:33:54.187Z,8.78
2019-01-16T09:36:49.983Z,8.93
2019-01-16T09:39:35.496Z,8.91
2019-01-16T09:42:20.780Z,9.00
2019-01-16T09:45:13.260Z,9.15
2019-01-16T09:47:57.574Z,8.72
2019-01-16T09:50:47.792Z,9.23
2019-01-16T09:53:38.319Z,9.14
2019-01-16T09:56:38.107Z,9.28
2019-01-16T09:59:34.007Z,9.17
2019-01-16T10:02:21.841Z,9.19
2019-01-16T10:05:08.075Z,8.96
2019-01-16T10:07:49.621Z,9.20
2019-01-16T10:10:36.790Z,9.09
2019-01-16T10:13:10.650Z,9.20
2019-01-16T10:16:03.194Z,9.34
2019-01-16T10:18:54.408Z,9.29
2019-01-16T10:21:40.962Z,9.16
2019-01-16T10:24:18.297Z,9.36
2019-01-16T10:27:05.213Z,9.19
2019-01-16T10:29:57.208Z,9.11
2019-01-16T10:32:57.202Z,9.21
2019-01-16T10:35:40.603Z,9.15
2019-01-16T10:38:27.098Z,9.39
2019-01-16T10:41:13.928Z,9.39
2019-01-16T10:44:03.381Z,9.42
2019-01-16T10:46:48.497Z,9.43
2019-01-16T10:49:38.438Z,9.10
2019-01-16T10:52:26.056Z,9.14
2019-01-16T10:55:08.140Z,9.44
2019-01-16T10:58:08.096Z,9.21
2019-01-16T11:00:54.178Z,9.48
2019-01-16T11:03:45.176Z,9.17
2019-01-16T11:06:35.613Z,9.43
2019-01-16T11:09:29.360Z,9.35
2019-01-16T11:12:17.025Z,9.26
2019-01-16T11:15:19.465Z,9.31
2019-01-16T11:18:05.350Z,9.32
2019-01-16T11:21:02.265Z,9.14
2019-01-16T11:23:47.886Z,9.19
2019-01-16T11:26:47.042Z,9.11
2019-01-16T11:29:32.459Z,8.96
2019-01-16T11:32:37.602Z,9.00
2019-01-16T11:35:27.974Z,8.80
2019-01-16T11:38:07.813Z,8.60
2019-01-16T11:40:44.991Z,8.58
2019-01-16T11:43:30.175Z,8.51
2019-01-16T11:46:14.563Z,8.62
2019-01-16T11:48:57.885Z,8.75
2019-01-16T11:51:42.744Z,8.63
2019-01-16T11:54:30.241Z,8.64
2019-01-16T11:57:23.227Z,8.67
2019-01-16T12:00:09.625Z,8.73
2019-01-16T12:02:57.319Z,8.66
2019-01-16T12:05:53.262Z,8.76
2019-01-16T12:08:30.532Z,8.56
2019-01-16T12:11:18.184Z,8.56
2019-01-16T12:14:04.894Z,8.65
2019-01-16T12:16:50.269Z,8.51
2019-01-16T12:19:36.929Z,8.62
2019-01-16T12:22:33.073Z,8.74
2019-01-16T12:25:28.629Z,8.49
2019-01-16T12:28:21.794Z,8.55
2019-01-16T12:31:13.070Z,8.48
2019-01-16T12:33:56.115Z,8.73
2019-01-16T12:36:42.024Z,8.63
2019-01-16T12:39:43.818Z,8.58
2019-01-16T12:42:42.868Z,8.60
2019-01-16T12:45:21.887Z,8.53
2019-01-16T12:48:26.870Z,8.57
2019-01-16T12:51:12.834Z,8.71
2019-01-16T12:54:03.126Z,8.57
2019-01-16T12:57:08.059Z,8.65
2019-01-16T12:59:52.987Z,8.63
2019-01-16T13:02:32.943Z,8.33
2019-01-16T13:05:23.579Z,8.58
2019-01-16T13:08:02.610Z,8.48
2019-01-16T13:10:58.580Z,8.47
2019-01-16T13:13:59.166Z,8.32
2019-01-16T13:16:36.547Z,8.32
2019-01-16T13:19:23.359Z,8.53
2019-01-16T13:22:28.347Z,8.20
2019-01-16T13:25:22.386Z,8.31
2019-01-16T13:28:06.840Z,8.43
2019-01-16T13:30:43.625Z,8.28
2019-01-16T13:33:37.330Z,8.18
2019-01-16T13:36:16.071Z,8.23
2019-01-16T13:39:13.051Z,8.38
2019-01-16T13:41:51.856Z,8.34
2019-01-16T13:44:52.417Z,8.24
2019-01-16T13:47:37.832Z,8.32
2019-01-16T13:50:26.043Z,8.33
2019-01-16T13:53:11.574Z,8.33
2019-01-16T13:56:15.431Z,8.26
2019-01-16T13:58:52.771Z,8.24
2019-01-16T14:01:36.735Z,8.27
2019-01-16T14:04:29.160Z,8.32
2019-01-16T14:07:22.613Z,8.61
2019-01-16T14:10:13.716Z,8.20
2019-01-16T14:13:03.434Z,8.19
2019-01-16T14:15:59.423Z,8.29
2019-01-16T14:18:39.626Z,8.21
2019-01-16T14:21:26.316Z,8.21
2019-01-16T14:24:06.395Z,8.19
2019-01-16T14:26:52.861Z,8.30
2019-01-16T14:29:29.479Z,8.35
2019-01-16T14:32:16.482Z,8.19
2019-01-16T14:35:10.775Z,8.21
2019-01-16T14:38:07.375Z,8.05
2019-01-16T14:40:52.317Z,8.34
2019-01-16T14:43:44.938Z,8.25
2019-01-16T14:46:32.190Z,8.28
2019-01-16T14:49:17.588Z,8.29
2019-01-16T14:52:03.573Z,8.22
2019-01-16T14:54:53.973Z,8.06
2019-01-16T14:57:39.750Z,7.99
2019-01-16T15:00:29.332Z,7.90
2019-01-16T15:03:22.281Z,7.96
2019-01-16T15:06:13.912Z,7.91
2019-01-16T15:09:01.843Z,8.06
2019-01-16T15:11:52.242Z,7.83
2019-01-16T15:14:48.340Z,7.87
2019-01-16T15:17:39.523Z,8.00
2019-01-16T15:20:35.978Z,7.96
2019-01-16T15:23:22.359Z,7.81
2019-01-16T15:26:11.930Z,7.85
2019-01-16T15:28:57.967Z,7.71
2019-01-16T15:31:36.447Z,7.76
2019-01-16T15:34:18.655Z,7.74
2019-01-16T15:37:05.145Z,7.81
2019-01-16T15:39:50.690Z,7.83
2019-01-16T15:42:48.037Z,7.83
2019-01-16T15:45:26.671Z,7.74
2019-01-16T15:48:22.620Z,7.73
2019-01-16T15:51:15.138Z,7.73
2019-01-16T15:53:49.370Z,7.62
2019-01-16T15:56:28.110Z,7.49
2019-01-16T15:59:04.783Z,7.65
2019-01-16T16:01:50.383Z,7.43
2019-01-16T16:04:36.162Z,7.54
2019-01-16T16:07:22.655Z,7.57
2019-01-16T16:10:09.567Z,7.49
2019-01-16T16:12:53.610Z,7.64
2019-01-16T16:15:45.437Z,7.36
2019-01-16T16:18:42.051Z,7.49
2019-01-16T16:21:35.618Z,7.58
2019-01-16T16:24:10.842Z,7.42
2019-01-16T16:26:58.633Z,7.53
2019-01-16T16:29:55.956Z,7.76
2019-01-16T16:32:51.746Z,7.78
2019-01-16T16:35:40.961Z,8.05
2019-01-16T16:38:26.851Z,7.62
2019-01-16T16:41:16.051Z,7.52
2019-01-16T16:44:12.639Z,7.50
2019-01-16T16:47:08.863Z,7.28
2019-01-16T16:49:55.551Z,7.24
2019-01-16T16:52:54.626Z,7.46
2019-01-16T16:56:01.102Z,7.36
2019-01-16T16:58:45.907Z,7.32
2019-01-16T17:01:40.730Z,7.30
2019-01-16T17:04:45.575Z,7.31
2019-01-16T17:07:30.802Z,7.28
2019-01-16T17:10:11.728Z,7.21
2019-01-16T17:13:04.364Z,7.18
2019-01-16T17:16:10.179Z,7.25
2019-01-16T17:18:57.076Z,7.21
2019-01-16T17:21:41.135Z,7.04
2019-01-16T17:24:29.603Z,7.10
2019-01-16T17:27:28.786Z,7.02
2019-01-16T17:30:18.794Z,7.11
2019-01-16T17:33:03.119Z,7.04
2019-01-16T17:35:37.966Z,7.11
2019-01-16T17:38:18.815Z,7.04
2019-01-16T17:40:58.249Z,7.18
2019-01-16T17:43:46.497Z,7.08
2019-01-16T17:46:51.303Z,7.14
2019-01-16T17:49:33.263Z,6.86
2019-01-16T17:52:21.002Z,7.14
2019-01-16T17:55:20.686Z,7.09
2019-01-16T17:58:07.710Z,7.08
2019-01-16T18:00:52.814Z,6.99
2019-01-16T18:03:43.833Z,6.91
2019-01-16T18:06:42.565Z,7.07
2019-01-16T18:09:32.060Z,7.00
2019-01-16T18:12:07.473Z,6.94
2019-01-16T18:14:52.487Z,6.93
2019-01-16T18:17:38.373Z,7.17
2019-01-16T18:20:24.515Z,7.04
2019-01-16T18:23:14.948Z,7.02
2019-01-16T18:25:52.239Z,7.01
2019-01-16T18:28:45.287Z,7.02
2019-01-16T18:31:51.068Z,7.05
2019-01-16T18:34:39.055Z,7.11
2019-01-16T18:37:34.938Z,7.03
2019-01-16T18:40:20.612Z,6.83
2019-01-16T18:43:10.380Z,6.94
2019-01-16T18:46:11.165Z,6.84
2019-01-16T18:48:58.199Z,6.82
2019-01-16T18:51:44.895Z,6.79
2019-01-16T18:54:47.042Z,6.75
2019-01-16T18:57:42.545Z,6.64
2019-01-16T19:00:32.795Z,6.65
2019-01-16T19:03:38.367Z,6.76
2019-01-16T19:06:37.165Z,6.75
2019-01-16T19:09:29.155Z,6.59
2019-01-16T19:12:14.692Z,6.77
2019-01-16T19:14:58.784Z,6.77
2019-01-16T19:17:45.429Z,6.72
2019-01-16T19:20:38.162Z,6.57
2019-01-16T19:23:32.659Z,6.62
2019-01-16T19:26:29.322Z,6.82
2019-01-16T19:29:16.943Z,6.54
2019-01-16T19:32:02.533Z,6.69
2019-01-16T19:34:55.526Z,6.71
2019-01-16T19:37:40.206Z,6.62
2019-01-16T19:40:27.979Z,6.70
2019-01-16T19:43:13.526Z,6.73
2019-01-16T19:46:05.278Z,6.60
2019-01-16T19:48:58.118Z,6.52
2019-01-16T19:51:43.846Z,6.60
2019-01-16T19:54:29.703Z,6.55
2019-01-16T19:57:15.294Z,6.59
2019-01-16T20:00:08.268Z,6.71
2019-01-16T20:02:56.263Z,6.56
2019-01-16T20:05:43.603Z,6.58
2019-01-16T20:08:29.450Z,6.51
2019-01-16T20:11:14.633Z,6.56
2019-01-16T20:14:06.136Z,6.59
2019-01-16T20:16:45.282Z,6.55
2019-01-16T20:19:24.085Z,6.58
2019-01-16T20:22:10.652Z,6.53
2019-01-16T20:24:56.358Z,6.49
2019-01-16T20:27:48.589Z,6.38
2019-01-16T20:30:41.409Z,6.56
2019-01-16T20:33:34.737Z,6.46
2019-01-16T20:36:20.025Z,6.53
2019-01-16T20:39:24.276Z,6.61
2019-01-16T20:42:09.497Z,6.35
2019-01-16T20:45:11.720Z,6.44
2019-01-16T20:47:58.186Z,6.37
2019-01-16T20:50:47.902Z,6.34
2019-01-16T20:53:23.389Z,6.48
2019-01-16T20:56:15.845Z,6.35
2019-01-16T20:59:09.140Z,6.18
2019-01-16T21:01:47.657Z,6.26
2019-01-16T21:04:40.691Z,6.35
2019-01-16T21:07:26.612Z,6.21
2019-01-16T21:10:01.085Z,6.36
2019-01-16T21:12:39.708Z,6.31
2019-01-16T21:15:38.103Z,6.42
2019-01-16T21:18:24.790Z,6.19
2019-01-16T21:21:08.427Z,6.50
2019-01-16T21:23:59.794Z,6.21
2019-01-16T21:26:45.056Z,6.25
2019-01-16T21:29:25.118Z,6.35
2019-01-16T21:32:06.994Z,6.22
2019-01-16T21:34:52.430Z,6.21
2019-01-16T21:37:45.272Z,6.19
2019-01-16T21:40:37.971Z,6.27
2019-01-16T21:43:17.805Z,6.28
2019-01-16T21:46:06.047Z,6.34
2019-01-16T21:49:01.805Z,6.15
2019-01-16T21:51:58.211Z,6.17
2019-01-16T21:54:54.471Z,6.10
2019-01-16T21:57:34.937Z,6.20
2019-01-16T22:00:34.335Z,6.08
2019-01-16T22:03:17.955Z,6.12
2019-01-16T22:06:04.844Z,6.01
2019-01-16T22:08:57.681Z,6.14
2019-01-16T22:11:59.557Z,5.99
2019-01-16T22:14:38.736Z,6.05
2019-01-16T22:17:29.787Z,5.80
2019-01-16T22:20:15.329Z,6.11
2019-01-16T22:22:50.772Z,5.96
2019-01-16T22:25:43.932Z,6.01
2019-01-16T22:28:29.101Z,5.95
2019-01-16T22:31:24.602Z,6.00
2019-01-16T22:34:09.890Z,6.10
2019-01-16T22:37:04.211Z,5.89
2019-01-16T22:39:49.820Z,5.92
2019-01-16T22:42:28.511Z,6.00
2019-01-16T22:45:18.261Z,5.95
2019-01-16T22:48:00.974Z,6.02
2019-01-16T22:50:47.230Z,5.95
2019-01-16T22:53:35.869Z,6.02
2019-01-16T22:56:14.634Z,5.84
2019-01-16T22:58:57.266Z,6.08
2019-01-16T23:01:44.216Z,6.00
2019-01-16T23:04:25.318Z,6.00
2019-01-16T23:07:07.869Z,6.06
2019-01-16T23:09:45.415Z,6.07
2019-01-16T23:12:31.551Z,6.10
2019-01-16T23:15:25.835Z,6.13
2019-01-16T23:18:32.825Z,6.09
2019-01-16T23:21:12.006Z,6.04
2019-01-16T23:23:57.246Z,6.07
2019-01-16T23:26:49.885Z,6.19
2019-01-16T23:29:39.966Z,6.05
2019-01-16T23:32:24.723Z,6.27
2019-01-16T23:35:04.091Z,6.17
2019-01-16T23:38:00.547Z,6.15
2019-01-16T23:40:47.648Z,6.03
2019-01-16T23:43:32.849Z,6.25
2019-01-16T23:46:16.726Z,6.12
2019-01-16T23:49:02.086Z,6.12
2019-01-16T23:51:51.952Z,6.13
2019-01-16T23:54:34.914Z,6.05
2019-01-16T23:57:24.161Z,6.01
